Time;durP1;ratioP1;P1;durP2;ratioP2;P2;SDS_P1;SDS_P2;PMS_P1;PMS_P2;Temp;Humidity;BMP_temperature;BMP_pressure;BME280_temperature;BME280_humidity;BME280_pressure;Samples;Min_cycle;Max_cycle;Signal;HPM_P1;HPM_P2
2022/12/18 00:01:58;;;;;;;32.20;13.00;;;;;;;-5.47;100.00;100935.72;99462;1350;23071;-31
2022/12/18 00:04:25;;;;;;;59.20;16.60;;;;;;;-5.43;100.00;100937.52;99315;1349;22706;-29
2022/12/18 00:06:51;;;;;;;27.70;9.60;;;;;;;-5.58;100.00;100937.55;99446;1350;23064;-29
2022/12/18 00:09:16;;;;;;;55.10;15.90;;;;;;;-5.54;100.00;100937.73;99396;1350;24346;-29
2022/12/18 00:11:42;;;;;;;47.60;17.60;;;;;;;-5.52;100.00;100941.16;99444;1353;24425;-34
2022/12/18 00:14:09;;;;;;;47.10;13.50;;;;;;;-5.47;100.00;100943.77;99408;1346;23192;-33
2022/12/18 00:16:36;;;;;;;51.60;15.10;;;;;;;-5.62;100.00;100938.54;99484;1366;22724;-34
2022/12/18 00:19:02;;;;;;;32.30;8.40;;;;;;;-5.63;100.00;100942.61;99383;1367;23176;-34
2022/12/18 00:21:29;;;;;;;40.20;13.00;;;;;;;-5.63;100.00;100949.05;99339;1351;23208;-29
2022/12/18 00:23:55;;;;;;;38.30;12.00;;;;;;;-5.58;100.00;100953.59;99099;1357;23866;-30
2022/12/18 00:26:23;;;;;;;57.80;14.80;;;;;;;-5.56;100.00;100958.59;99486;1351;22722;-38
2022/12/18 00:28:49;;;;;;;30.90;11.30;;;;;;;-5.54;100.00;100956.95;99414;1351;24277;-34
2022/12/18 00:31:16;;;;;;;78.10;16.20;;;;;;;-5.41;100.00;100962.55;99402;1350;22706;-30
2022/12/18 00:33:42;;;;;;;25.30;10.10;;;;;;;-5.60;100.00;100964.29;99482;1350;22606;-34
2022/12/18 00:36:10;;;;;;;51.40;11.90;;;;;;;-5.54;100.00;100963.73;99425;1350;23164;-28
2022/12/18 00:38:37;;;;;;;41.70;11.60;;;;;;;-5.59;100.00;100965.66;99515;1350;25338;-34
2022/12/18 00:41:03;;;;;;;78.40;15.70;;;;;;;-5.72;100.00;100971.71;99440;1350;22851;-30
2022/12/18 00:43:29;;;;;;;55.30;15.10;;;;;;;-5.74;100.00;100972.48;99475;1351;22745;-29
2022/12/18 00:45:54;;;;;;;55.50;16.50;;;;;;;-5.69;100.00;100979.45;99414;1366;24349;-29
2022/12/18 00:48:20;;;;;;;56.90;17.00;;;;;;;-5.62;100.00;100982.00;99312;1350;24505;-29
2022/12/18 00:50:47;;;;;;;55.30;13.60;;;;;;;-5.64;100.00;100989.22;99436;1366;22882;-34
2022/12/18 00:53:12;;;;;;;55.60;16.70;;;;;;;-5.56;100.00;100991.39;99383;1349;22635;-30
2022/12/18 00:55:41;;;;;;;53.30;15.90;;;;;;;-5.58;100.00;100996.52;99321;1351;23157;-30
2022/12/18 00:58:08;;;;;;;61.30;12.20;;;;;;;-5.47;100.00;101001.52;99359;1366;22855;-30
2022/12/18 01:00:34;;;;;;;47.20;15.20;;;;;;;-5.55;100.00;101004.79;99394;1354;22867;-34
2022/12/18 01:02:59;;;;;;;17.50;7.90;;;;;;;-5.51;100.00;101007.27;99046;1363;23188;-33
2022/12/18 01:05:25;;;;;;;35.90;12.00;;;;;;;-5.61;100.00;101015.66;99408;1361;24258;-35
2022/12/18 01:07:51;;;;;;;25.70;8.70;;;;;;;-5.65;100.00;101019.44;99311;1350;22722;-35
2022/12/18 01:10:17;;;;;;;38.30;10.60;;;;;;;-5.58;100.00;101020.58;99363;1370;23135;-30
2022/12/18 01:12:42;;;;;;;19.40;8.30;;;;;;;-5.63;100.00;101023.57;99390;1365;23199;-34
2022/12/18 01:15:09;;;;;;;36.30;9.60;;;;;;;-5.69;100.00;101024.84;99345;1370;23203;-30
2022/12/18 01:17:35;;;;;;;53.30;16.30;;;;;;;-5.80;100.00;101030.27;99376;1370;24338;-31
2022/12/18 01:20:00;;;;;;;26.70;9.10;;;;;;;-5.94;100.00;101033.73;99424;1346;22610;-34
2022/12/18 01:22:26;;;;;;;30.10;9.80;;;;;;;-5.85;100.00;101033.91;99275;1354;22740;-29
2022/12/18 01:24:51;;;;;;;38.50;11.20;;;;;;;-5.90;100.00;101040.91;99367;1353;22856;-34
2022/12/18 01:27:17;;;;;;;36.90;11.20;;;;;;;-5.91;100.00;101037.23;99358;1350;24258;-29
2022/12/18 01:29:42;;;;;;;64.40;15.40;;;;;;;-5.92;100.00;101041.16;99367;1354;24324;-29
2022/12/18 01:32:08;;;;;;;32.40;11.20;;;;;;;-5.94;100.00;101044.52;99264;1352;23310;-31
2022/12/18 01:34:36;;;;;;;32.50;10.60;;;;;;;-5.93;100.00;101050.08;99365;1354;23200;-29
2022/12/18 01:37:03;;;;;;;54.60;16.70;;;;;;;-5.94;100.00;101052.38;99373;1352;24285;-29
2022/12/18 01:39:29;;;;;;;57.40;18.70;;;;;;;-5.79;100.00;101052.39;99436;1350;22740;-29
2022/12/18 01:44:47;;;;;;;36.30;12.00;;;;;;;-5.79;100.00;101055.36;99351;1350;24323;-29
2022/12/18 01:47:26;;;;;;;48.10;14.00;;;;;;;-5.84;100.00;101057.27;99363;1349;24331;-29
2022/12/18 01:49:53;;;;;;;19.90;8.00;;;;;;;-5.66;100.00;101059.77;99371;1350;22866;-36
2022/12/18 01:52:19;;;;;;;68.60;17.50;;;;;;;-5.91;100.00;101057.36;99340;1360;22846;-34
2022/12/18 01:54:44;;;;;;;45.60;12.90;;;;;;;-6.10;100.00;101055.88;99435;1359;22715;-29
2022/12/18 01:57:10;;;;;;;34.70;10.90;;;;;;;-6.11;100.00;101057.13;99455;1366;23092;-29
2022/12/18 01:59:35;;;;;;;48.60;12.90;;;;;;;-6.18;100.00;101059.48;99354;1353;24732;-34
2022/12/18 02:02:01;;;;;;;54.70;12.80;;;;;;;-6.09;100.00;101066.14;99327;1357;24444;-33
2022/12/18 02:04:27;;;;;;;33.50;13.00;;;;;;;-6.09;100.00;101073.48;99365;1371;24446;-31
2022/12/18 02:07:16;;;;;;;33.70;8.20;;;;;;;-6.03;100.00;101075.37;99414;1354;23192;-30
2022/12/18 02:09:46;;;;;;;33.10;10.60;;;;;;;-6.02;100.00;101077.77;99317;1350;23195;-30
2022/12/18 02:12:20;;;;;;;51.40;13.90;;;;;;;-6.05;100.00;101080.67;99410;1351;22686;-30
2022/12/18 02:15:02;;;;;;;36.00;10.30;;;;;;;-6.08;100.00;101083.38;99363;1353;25306;-35
2022/12/18 02:17:38;;;;;;;49.70;14.20;;;;;;;-6.05;100.00;101088.33;99385;1350;23075;-35
2022/12/18 02:20:24;;;;;;;49.40;13.70;;;;;;;-6.13;100.00;101092.95;99474;1349;24466;-30
2022/12/18 02:23:13;;;;;;;40.60;13.30;;;;;;;-6.21;100.00;101100.52;99435;1350;23083;-35
2022/12/18 02:26:06;;;;;;;26.10;10.30;;;;;;;-6.17;100.00;101107.88;99401;1350;22858;-28
2022/12/18 02:28:45;;;;;;;36.40;12.40;;;;;;;-6.22;100.00;101109.44;99419;1370;23076;-31
2022/12/18 02:31:13;;;;;;;40.70;8.00;;;;;;;-6.17;100.00;101110.85;99361;1366;24421;-37
2022/12/18 02:33:38;;;;;;;27.10;8.80;;;;;;;-6.08;100.00;101114.08;99435;1370;22800;-35
2022/12/18 02:36:05;;;;;;;96.90;23.60;;;;;;;-6.15;100.00;101118.65;99382;1369;22818;-35
2022/12/18 02:38:31;;;;;;;25.20;11.30;;;;;;;-6.16;100.00;101115.00;99341;1353;24324;-30
2022/12/18 02:40:57;;;;;;;55.40;14.90;;;;;;;-6.14;100.00;101113.90;99325;1370;24434;-30
2022/12/18 02:43:22;;;;;;;39.60;11.70;;;;;;;-6.24;100.00;101117.02;99392;1370;23221;-30
2022/12/18 02:45:50;;;;;;;44.90;8.20;;;;;;;-6.24;100.00;101121.36;99379;1350;22847;-35
2022/12/18 02:48:18;;;;;;;36.10;10.70;;;;;;;-6.07;100.00;101123.79;99057;1370;24064;-30
2022/12/18 02:50:47;;;;;;;48.00;12.50;;;;;;;-6.26;100.00;101117.77;99426;1370;22714;-35
2022/12/18 02:53:18;;;;;;;36.00;11.80;;;;;;;-6.17;100.00;101120.79;99352;1370;23268;-30
2022/12/18 02:55:58;;;;;;;33.50;5.60;;;;;;;-6.27;100.00;101125.45;99391;1369;22616;-30
2022/12/18 02:58:33;;;;;;;17.30;10.10;;;;;;;-6.30;100.00;101127.83;99330;1353;22956;-37
2022/12/18 03:01:13;;;;;;;33.60;6.90;;;;;;;-6.27;100.00;101128.60;99373;1370;24016;-28
2022/12/18 03:03:46;;;;;;;19.50;9.30;;;;;;;-6.39;100.00;101124.63;99479;1350;23111;-34
2022/12/18 03:06:21;;;;;;;58.30;12.30;;;;;;;-6.29;100.00;101127.08;99296;1350;24339;-34
2022/12/18 03:08:48;;;;;;;36.30;9.50;;;;;;;-6.33;100.00;101136.29;99370;1370;22725;-34
2022/12/18 03:11:14;;;;;;;11.50;3.70;;;;;;;-6.29;100.00;101139.45;99481;1350;22845;-29
2022/12/18 03:13:49;;;;;;;48.30;12.10;;;;;;;-6.26;100.00;101138.85;99430;1370;22717;-35
2022/12/18 03:16:18;;;;;;;11.00;4.90;;;;;;;-6.33;100.00;101140.29;99356;1349;24262;-33
2022/12/18 03:18:49;;;;;;;30.00;10.80;;;;;;;-6.49;100.00;101146.17;99388;1366;23067;-29
2022/12/18 03:21:14;;;;;;;36.10;11.50;;;;;;;-6.47;100.00;101146.30;99420;1351;23096;-29
2022/12/18 03:23:42;;;;;;;34.20;10.40;;;;;;;-6.40;100.00;101146.05;99355;1361;23941;-34
2022/12/18 03:26:12;;;;;;;40.90;10.20;;;;;;;-6.38;100.00;101147.23;99419;1370;22608;-31
2022/12/18 03:28:40;;;;;;;32.90;9.40;;;;;;;-6.28;100.00;101151.30;99395;1354;23104;-29
2022/12/18 03:31:05;;;;;;;45.80;11.00;;;;;;;-6.24;100.00;101150.12;99385;1350;24464;-30
2022/12/18 03:33:47;;;;;;;47.60;10.70;;;;;;;-6.29;100.00;101149.23;99371;1350;22897;-30
2022/12/18 03:36:12;;;;;;;35.50;10.50;;;;;;;-6.26;100.00;101152.80;99356;1369;22970;-29
2022/12/18 03:38:38;;;;;;;34.40;8.20;;;;;;;-6.29;100.00;101153.93;99357;1350;25373;-35
2022/12/18 03:41:15;;;;;;;33.50;10.20;;;;;;;-6.30;100.00;101156.23;99357;1355;24889;-35
2022/12/18 03:43:49;;;;;;;33.90;7.70;;;;;;;-6.35;100.00;101159.53;99322;1366;23082;-30
2022/12/18 03:46:28;;;;;;;18.20;6.70;;;;;;;-6.34;100.00;101163.85;99328;1362;22710;-30
2022/12/18 03:49:01;;;;;;;11.80;5.00;;;;;;;-6.42;100.00;101170.72;99374;1366;23221;-30
2022/12/18 03:51:28;;;;;;;;;;;;;;;-6.41;100.00;101177.11;99395;1363;22580;-30
2022/12/18 03:54:02;;;;;;;4.90;3.20;;;;;;;-6.44;100.00;101184.20;99335;1350;22725;-29
2022/12/18 03:56:29;;;;;;;6.60;2.00;;;;;;;-6.44;100.00;101189.58;99420;1352;22620;-30
2022/12/18 03:58:56;;;;;;;10.50;2.50;;;;;;;-6.49;100.00;101188.52;99442;1350;22718;-30
2022/12/18 04:01:25;;;;;;;31.00;7.80;;;;;;;-6.62;100.00;101189.05;99348;1351;22684;-28
2022/12/18 04:03:50;;;;;;;27.00;9.70;;;;;;;-6.53;100.00;101191.77;99438;1365;23084;-28
2022/12/18 04:06:16;;;;;;;41.80;13.50;;;;;;;-6.54;100.00;101193.89;99284;1370;24800;-35
2022/12/18 04:08:41;;;;;;;46.90;12.80;;;;;;;-6.47;100.00;101199.79;99297;1360;24496;-34
2022/12/18 04:11:08;;;;;;;30.70;9.40;;;;;;;-6.49;100.00;101196.36;99357;1361;24501;-34
2022/12/18 04:13:37;;;;;;;39.70;7.90;;;;;;;-6.53;100.00;101196.66;99342;1353;26603;-36
2022/12/18 04:16:03;;;;;;;13.10;5.70;;;;;;;-6.50;100.00;101198.48;99417;1350;24460;-31
2022/12/18 04:18:29;;;;;;;32.00;10.00;;;;;;;-6.38;100.00;101199.34;99410;1350;24356;-31
2022/12/18 04:20:55;;;;;;;45.00;10.20;;;;;;;-6.52;100.00;101202.36;99393;1354;23616;-28
2022/12/18 04:23:20;;;;;;;16.80;6.60;;;;;;;-6.40;100.00;101209.52;99391;1354;22847;-33
2022/12/18 04:25:49;;;;;;;20.90;5.90;;;;;;;-6.27;100.00;101205.65;99340;1353;23070;-33
2022/12/18 04:28:14;;;;;;;13.50;5.60;;;;;;;-6.38;100.00;101205.98;99305;1352;23191;-33
2022/12/18 04:30:40;;;;;;;35.20;9.90;;;;;;;-6.45;100.00;101212.45;99378;1350;26584;-29
2022/12/18 04:33:10;;;;;;;35.30;12.00;;;;;;;-6.57;100.00;101216.08;99299;1352;23018;-29
2022/12/18 04:35:35;;;;;;;51.80;12.50;;;;;;;-6.60;100.00;101220.70;99495;1354;25489;-29
2022/12/18 05:14:22;;;;;;;31.80;7.80;;;;;;;-6.86;100.00;101253.11;99188;1369;556616;-33
2022/12/18 05:16:49;;;;;;;58.90;12.20;;;;;;;-6.86;100.00;101259.05;99133;1353;352535;-34
2022/12/18 05:19:15;;;;;;;16.20;6.20;;;;;;;-6.92;100.00;101259.55;99410;1365;23235;-34
2022/12/18 05:21:41;;;;;;;22.60;7.40;;;;;;;-7.01;100.00;101265.89;99465;1350;22820;-31
2022/12/18 05:24:06;;;;;;;50.20;10.60;;;;;;;-7.03;100.00;101272.89;99352;1354;23059;-34
2022/12/18 05:26:32;;;;;;;46.50;13.50;;;;;;;-7.00;100.00;101274.91;99275;1354;22858;-37
2022/12/18 05:28:57;;;;;;;58.90;15.80;;;;;;;-6.96;100.00;101268.87;99403;1370;22620;-35
2022/12/18 05:31:22;;;;;;;55.20;14.20;;;;;;;-6.99;100.00;101279.75;99425;1351;23184;-30
2022/12/18 05:33:48;;;;;;;39.30;10.10;;;;;;;-7.04;100.00;101280.91;99286;1360;24251;-35
2022/12/18 05:36:14;;;;;;;43.60;13.60;;;;;;;-7.03;100.00;101286.29;99393;1367;24438;-30
2022/12/18 05:38:39;;;;;;;31.50;10.50;;;;;;;-7.05;100.00;101288.27;99406;1353;22850;-34
2022/12/18 05:41:05;;;;;;;41.00;14.00;;;;;;;-7.01;100.00;101290.59;99401;1351;24231;-30
2022/12/18 05:43:31;;;;;;;32.50;9.60;;;;;;;-6.92;100.00;101292.63;99356;1353;22853;-30
2022/12/18 05:45:57;;;;;;;40.00;10.90;;;;;;;-6.97;100.00;101294.67;99418;1366;24346;-30
2022/12/18 05:48:22;;;;;;;44.80;9.40;;;;;;;-7.00;100.00;101295.97;99308;1369;22816;-34
2022/12/18 05:50:49;;;;;;;8.90;6.40;;;;;;;-7.02;100.00;101301.23;99457;1368;23249;-34
2022/12/18 05:53:16;;;;;;;42.70;9.70;;;;;;;-7.06;100.00;101301.17;99382;1350;22699;-34
2022/12/18 05:55:41;;;;;;;54.50;8.10;;;;;;;-7.07;100.00;101301.55;99435;1350;22725;-29
2022/12/18 05:58:07;;;;;;;36.80;11.70;;;;;;;-7.10;100.00;101303.51;99474;1350;22867;-35
2022/12/18 06:00:34;;;;;;;46.20;11.10;;;;;;;-7.11;100.00;101301.81;99435;1344;26763;-33
2022/12/18 06:03:00;;;;;;;25.30;4.40;;;;;;;-7.14;100.00;101300.33;99428;1351;23217;-34
2022/12/18 06:05:26;;;;;;;52.90;13.60;;;;;;;-7.08;100.00;101304.70;99290;1371;22911;-32
2022/12/18 06:07:52;;;;;;;36.70;8.70;;;;;;;-7.09;100.00;101303.14;99338;1353;22597;-34
2022/12/18 06:10:17;;;;;;;53.70;12.30;;;;;;;-7.08;100.00;101305.05;99432;1353;23168;-31
2022/12/18 06:12:43;;;;;;;37.20;9.80;;;;;;;-7.11;100.00;101305.63;99456;1353;22607;-30
2022/12/18 06:15:09;;;;;;;45.60;12.50;;;;;;;-7.01;100.00;101310.96;99363;1351;22709;-34
2022/12/18 06:17:35;;;;;;;40.90;12.40;;;;;;;-6.91;100.00;101315.76;99428;1353;22604;-29
2022/12/18 06:20:01;;;;;;;39.10;11.70;;;;;;;-6.91;100.00;101317.85;99450;1353;24317;-34
2022/12/18 06:22:26;;;;;;;48.70;15.10;;;;;;;-6.87;100.00;101320.53;99446;1351;24365;-35
2022/12/18 06:24:52;;;;;;;54.00;14.90;;;;;;;-6.89;100.00;101325.45;99385;1356;24345;-35
2022/12/18 06:27:17;;;;;;;35.30;9.60;;;;;;;-6.92;100.00;101330.59;99381;1353;25360;-28
2022/12/18 06:29:43;;;;;;;71.80;8.80;;;;;;;-6.95;100.00;101334.33;99515;1361;25026;-30
2022/12/18 06:32:08;;;;;;;46.40;11.30;;;;;;;-6.97;100.00;101335.60;99503;1359;24354;-34
2022/12/18 06:34:34;;;;;;;46.70;12.30;;;;;;;-6.89;100.00;101336.42;99452;1370;24329;-35
2022/12/18 06:36:59;;;;;;;40.70;11.00;;;;;;;-7.08;100.00;101344.02;99391;1350;23029;-29
2022/12/18 06:39:28;;;;;;;56.70;11.30;;;;;;;-7.07;100.00;101348.88;99395;1370;24466;-30
2022/12/18 06:41:54;;;;;;;48.90;12.50;;;;;;;-6.91;100.00;101355.64;99422;1354;22738;-30
2022/12/18 06:44:19;;;;;;;40.20;10.00;;;;;;;-7.06;100.00;101356.00;99323;1371;25446;-34
2022/12/18 06:46:45;;;;;;;42.00;12.30;;;;;;;-7.09;100.00;101357.81;99376;1353;26586;-29
2022/12/18 06:49:10;;;;;;;35.00;11.10;;;;;;;-7.03;100.00;101354.54;99359;1351;23161;-29
2022/12/18 06:51:36;;;;;;;53.30;14.60;;;;;;;-7.05;100.00;101357.73;99179;1371;23081;-33
2022/12/18 06:54:02;;;;;;;29.20;8.00;;;;;;;-6.99;100.00;101362.63;99396;1366;22605;-34
2022/12/18 06:56:27;;;;;;;41.30;12.60;;;;;;;-7.08;100.00;101370.14;99328;1343;24834;-34
2022/12/18 06:58:53;;;;;;;42.60;9.70;;;;;;;-7.01;100.00;101373.30;99326;1351;24378;-36
2022/12/18 07:01:18;;;;;;;44.30;14.60;;;;;;;-6.95;100.00;101377.15;99351;1353;22841;-35
2022/12/18 07:03:45;;;;;;;46.60;11.90;;;;;;;-6.90;100.00;101377.92;99313;1363;22722;-35
2022/12/18 07:06:18;;;;;;;57.10;12.80;;;;;;;-6.94;100.00;101385.66;99388;1357;23082;-35
2022/12/18 07:08:45;;;;;;;38.10;12.00;;;;;;;-6.85;100.00;101384.93;99344;1351;24335;-33
2022/12/18 07:11:10;;;;;;;39.20;12.40;;;;;;;-6.85;100.00;101386.33;99373;1350;24334;-30
2022/12/18 07:13:36;;;;;;;39.80;12.10;;;;;;;-6.92;100.00;101392.05;99336;1350;22894;-30
2022/12/18 07:16:09;;;;;;;55.10;13.20;;;;;;;-6.92;100.00;101399.20;99333;1353;23179;-34
2022/12/18 07:18:35;;;;;;;36.70;11.90;;;;;;;-6.89;100.00;101405.77;99374;1365;22759;-30
2022/12/18 07:21:13;;;;;;;55.60;14.30;;;;;;;-6.79;100.00;101409.52;99416;1363;22600;-34
2022/12/18 07:23:39;;;;;;;38.20;12.90;;;;;;;-6.73;100.00;101407.11;99433;1370;25328;-30
2022/12/18 07:26:06;;;;;;;45.50;13.90;;;;;;;-6.72;100.00;101406.55;99368;1351;24264;-36
2022/12/18 07:28:32;;;;;;;48.60;15.10;;;;;;;-6.74;100.00;101413.73;99372;1350;24415;-29
2022/12/18 07:31:02;;;;;;;40.70;13.00;;;;;;;-6.69;100.00;101417.11;99384;1353;24357;-30
2022/12/18 07:33:27;;;;;;;55.60;15.00;;;;;;;-6.64;100.00;101421.68;99328;1357;24445;-31
2022/12/18 07:35:52;;;;;;;37.10;11.00;;;;;;;-6.65;100.00;101422.07;99362;1370;22666;-30
2022/12/18 07:38:18;;;;;;;57.50;15.90;;;;;;;-6.56;100.00;101420.62;99318;1371;22876;-34
2022/12/18 07:40:43;;;;;;;40.80;13.70;;;;;;;-6.42;100.00;101418.35;99371;1353;24342;-29
2022/12/18 07:43:09;;;;;;;30.80;9.30;;;;;;;-6.28;100.00;101420.25;99472;1359;24256;-35
2022/12/18 07:45:34;;;;;;;66.90;14.80;;;;;;;-6.26;100.00;101417.93;99380;1366;22869;-30
2022/12/18 07:48:00;;;;;;;36.10;12.00;;;;;;;-6.39;100.00;101413.75;99376;1360;22699;-35
2022/12/18 07:50:25;;;;;;;40.10;11.50;;;;;;;-6.42;100.00;101414.33;99359;1353;24355;-30
2022/12/18 07:52:51;;;;;;;47.80;15.50;;;;;;;-6.28;100.00;101413.45;99399;1350;22725;-30
2022/12/18 07:55:16;;;;;;;50.70;13.50;;;;;;;-6.16;100.00;101413.84;99476;1344;22621;-31
2022/12/18 07:57:42;;;;;;;37.70;11.00;;;;;;;-6.27;100.00;101415.01;99348;1368;24812;-28
2022/12/18 08:00:08;;;;;;;66.40;14.00;;;;;;;-6.24;100.00;101412.32;99391;1353;22725;-28
2022/12/18 08:02:34;;;;;;;53.80;13.70;;;;;;;-6.12;100.00;101411.30;99388;1359;23087;-33
2022/12/18 08:04:59;;;;;;;883.60;295.70;;;;;;;-6.05;100.00;101409.20;99401;1369;24554;-35
2022/12/18 08:07:25;;;;;;;766.20;248.20;;;;;;;-5.97;100.00;101414.36;99352;1353;22700;-28
2022/12/18 08:09:50;;;;;;;90.50;24.70;;;;;;;-5.91;100.00;101414.35;99369;1353;22735;-34
2022/12/18 08:12:16;;;;;;;128.70;38.10;;;;;;;-5.97;100.00;101416.66;99370;1370;24345;-29
2022/12/18 08:14:42;;;;;;;48.60;16.80;;;;;;;-5.93;100.00;101422.63;99338;1359;23742;-31
2022/12/18 08:17:07;;;;;;;64.10;22.40;;;;;;;-5.89;100.00;101431.38;99271;1359;25381;-34
2022/12/18 08:19:35;;;;;;;103.70;29.90;;;;;;;-5.80;100.00;101432.73;99484;1350;23236;-29
2022/12/18 08:22:01;;;;;;;302.20;95.30;;;;;;;-5.80;100.00;101435.52;99376;1360;22718;-36
2022/12/18 08:24:27;;;;;;;64.00;18.30;;;;;;;-5.74;100.00;101439.34;99390;1350;22715;-35
2022/12/18 08:26:52;;;;;;;43.00;13.30;;;;;;;-5.77;100.00;101443.08;99325;1370;23507;-34
2022/12/18 08:29:18;;;;;;;33.30;11.90;;;;;;;-5.79;100.00;101443.86;99325;1370;22974;-29
2022/12/18 08:31:43;;;;;;;50.80;17.10;;;;;;;-5.73;100.00;101447.16;99367;1353;25758;-29
2022/12/18 08:34:09;;;;;;;53.10;14.30;;;;;;;-5.63;100.00;101446.19;99303;1352;23067;-30
2022/12/18 08:36:35;;;;;;;26.00;6.70;;;;;;;-5.64;100.00;101440.11;99334;1369;25209;-35
2022/12/18 08:39:00;;;;;;;46.00;14.80;;;;;;;-5.66;100.00;101440.00;99372;1351;22812;-35
2022/12/18 08:41:26;;;;;;;41.60;12.60;;;;;;;-5.69;100.00;101449.67;99386;1369;22877;-35
2022/12/18 08:46:22;;;;;;;37.10;8.40;;;;;;;-5.95;100.00;101465.09;99420;1366;22710;-30
2022/12/18 08:48:48;;;;;;;36.50;10.60;;;;;;;-5.99;100.00;101472.34;99413;1350;22847;-29
2022/12/18 08:51:15;;;;;;;;;;;;;;;-5.92;100.00;101470.20;99408;1366;24462;-35
2022/12/18 08:53:40;;;;;;;31.50;10.90;;;;;;;-5.79;100.00;101473.66;99348;1350;22599;-34
2022/12/18 08:56:07;;;;;;;75.50;19.60;;;;;;;-5.85;100.00;101477.32;99345;1353;22841;-35
2022/12/18 08:58:32;;;;;;;53.90;15.40;;;;;;;-5.80;100.00;101484.35;99401;1350;23083;-35
2022/12/18 09:01:05;;;;;;;41.10;14.50;;;;;;;-5.76;100.00;101488.09;99319;1366;22713;-34
2022/12/18 09:03:31;;;;;;;42.10;12.90;;;;;;;-5.77;100.00;101492.48;99442;1370;23946;-34
2022/12/18 09:05:56;;;;;;;55.00;15.80;;;;;;;-5.76;100.00;101490.34;99328;1351;23579;-29
2022/12/18 09:08:22;;;;;;;40.80;12.30;;;;;;;-5.69;100.00;101485.80;99381;1368;24267;-29
2022/12/18 09:10:49;;;;;;;54.50;14.20;;;;;;;-5.81;100.00;101484.54;99371;1353;25484;-35
2022/12/18 09:13:15;;;;;;;69.40;16.00;;;;;;;-5.82;100.00;101479.88;99388;1351;22806;-30
2022/12/18 09:15:42;;;;;;;44.60;15.10;;;;;;;-5.74;100.00;101480.70;99318;1350;23214;-32
2022/12/18 09:18:08;;;;;;;70.70;22.20;;;;;;;-5.62;100.00;101470.41;99373;1353;22950;-30
2022/12/18 09:20:35;;;;;;;93.50;18.70;;;;;;;-5.41;100.00;101477.67;99351;1360;23150;-29
2022/12/18 09:23:01;;;;;;;93.30;21.90;;;;;;;-5.23;100.00;101485.37;99396;1350;24345;-35
2022/12/18 09:25:32;;;;;;;47.80;16.40;;;;;;;-5.13;100.00;101481.06;99424;1369;23192;-30
2022/12/18 09:27:59;;;;;;;63.80;17.10;;;;;;;-5.13;100.00;101482.12;99436;1370;22611;-29
2022/12/18 09:30:25;;;;;;;36.40;13.00;;;;;;;-5.26;100.00;101486.14;99399;1368;24557;-34
2022/12/18 09:32:51;;;;;;;62.90;21.50;;;;;;;-5.29;100.00;101482.92;99420;1360;22621;-29
2022/12/18 09:35:17;;;;;;;46.00;15.60;;;;;;;-5.47;100.00;101482.92;99318;1362;22685;-34
2022/12/18 09:37:42;;;;;;;51.50;19.10;;;;;;;-5.47;100.00;101480.13;99322;1353;22855;-35
2022/12/18 09:40:21;;;;;;;51.50;18.20;;;;;;;-5.62;100.00;101476.02;99388;1350;22712;-35
2022/12/18 09:42:51;;;;;;;70.20;16.90;;;;;;;-5.53;100.00;101472.80;99407;1352;23066;-35
2022/12/18 09:45:17;;;;;;;74.00;20.80;;;;;;;-5.46;100.00;101474.34;99324;1351;23204;-30
2022/12/18 09:47:43;;;;;;;60.40;19.00;;;;;;;-5.38;100.00;101480.04;99358;1347;23078;-35
2022/12/18 09:50:25;;;;;;;55.50;14.90;;;;;;;-5.23;100.00;101479.25;99347;1353;22813;-35
2022/12/18 09:52:52;;;;;;;36.30;13.80;;;;;;;-5.03;100.00;101477.63;99465;1350;22599;-30
2022/12/18 09:55:42;;;;;;;52.80;14.80;;;;;;;-5.05;100.00;101474.36;99476;1357;22819;-35
2022/12/18 09:58:13;;;;;;;35.30;12.70;;;;;;;-5.11;100.00;101462.50;99369;1353;23204;-31
2022/12/18 10:00:38;;;;;;;41.60;13.90;;;;;;;-5.09;100.00;101457.36;99108;1353;24345;-30
2022/12/18 10:03:12;;;;;;;54.30;16.40;;;;;;;-5.22;100.00;101454.80;99357;1355;22726;-34
2022/12/18 10:05:48;;;;;;;95.20;23.80;;;;;;;-5.23;100.00;101450.47;99350;1353;22724;-34
2022/12/18 10:08:38;;;;;;;108.40;23.90;;;;;;;-5.15;100.00;101445.48;99364;1370;22594;-30
2022/12/18 10:11:10;;;;;;;83.70;21.70;;;;;;;-5.09;100.00;101445.84;99378;1353;24345;-30
2022/12/18 10:13:46;;;;;;;44.60;14.10;;;;;;;-4.95;100.00;101450.80;99315;1369;23042;-35
2022/12/18 10:16:17;;;;;;;36.50;11.60;;;;;;;-4.89;100.00;101441.56;99316;1360;24317;-34
2022/12/18 10:18:59;;;;;;;48.30;14.90;;;;;;;-5.00;100.00;101434.22;99396;1353;24382;-35
2022/12/18 10:21:49;;;;;;;51.20;12.60;;;;;;;-5.08;100.00;101434.97;99404;1370;23255;-31
2022/12/18 10:24:37;;;;;;;37.90;9.60;;;;;;;-4.91;100.00;101435.16;99361;1353;22739;-28
2022/12/18 10:27:15;;;;;;;73.60;12.90;;;;;;;-5.23;100.00;101431.92;99342;1353;22809;-34
2022/12/18 10:29:42;;;;;;;28.00;11.20;;;;;;;-5.27;100.00;101434.33;99440;1353;22725;-29
2022/12/18 10:32:13;;;;;;;42.70;12.60;;;;;;;-5.29;100.00;101430.38;99424;1352;23208;-29
2022/12/18 10:34:38;;;;;;;22.60;7.70;;;;;;;-5.36;100.00;101429.36;99387;1369;22731;-30
2022/12/18 10:37:06;;;;;;;41.40;12.90;;;;;;;-5.38;100.00;101425.95;99427;1370;25023;-34
2022/12/18 10:39:31;;;;;;;44.60;14.10;;;;;;;-5.37;100.00;101423.13;99410;1351;23086;-30
2022/12/18 10:42:10;;;;;;;33.80;9.90;;;;;;;-5.37;100.00;101426.92;99413;1353;23066;-36
2022/12/18 10:44:36;;;;;;;48.00;13.50;;;;;;;-5.29;100.00;101425.81;99410;1367;23073;-34
2022/12/18 10:47:06;;;;;;;37.80;13.20;;;;;;;-5.21;100.00;101429.80;99420;1361;24556;-36
2022/12/18 10:49:32;;;;;;;53.80;16.70;;;;;;;-5.15;100.00;101425.76;99061;1348;24419;-35
2022/12/18 10:52:05;;;;;;;54.50;18.30;;;;;;;-5.02;100.00;101427.30;99335;1370;25549;-30
2022/12/18 10:54:30;;;;;;;52.70;18.70;;;;;;;-4.84;100.00;101431.79;99433;1354;22611;-29
2022/12/18 10:57:17;;;;;;;32.20;13.40;;;;;;;-4.63;100.00;101434.60;99347;1370;23047;-30
2022/12/18 10:59:54;;;;;;;39.00;14.40;;;;;;;-4.59;100.00;101435.16;99413;1370;22842;-30
2022/12/18 11:02:28;;;;;;;45.30;18.50;;;;;;;-4.72;100.00;101437.33;99365;1354;25341;-34
2022/12/18 11:45:54;;;;;;;134.10;43.30;;;;;;;-3.74;100.00;101442.74;99509;1367;557641;-30
2022/12/18 11:48:24;;;;;;;139.90;43.30;;;;;;;-3.77;100.00;101434.11;99235;1366;338937;-37
2022/12/18 11:50:56;;;;;;;70.20;25.20;;;;;;;-3.71;100.00;101430.73;99717;1349;22599;-35
2022/12/18 11:53:21;;;;;;;55.50;17.90;;;;;;;-3.62;100.00;101432.88;99467;1350;23142;-35
2022/12/18 11:56:03;;;;;;;369.60;93.70;;;;;;;-3.66;100.00;101431.97;99481;1360;22825;-35
2022/12/18 11:58:43;;;;;;;473.90;96.30;;;;;;;-3.82;99.98;101430.79;99376;1350;23085;-40
2022/12/18 12:01:41;;;;;;;438.00;92.80;;;;;;;-4.02;99.78;101439.39;99559;1368;23170;-35
2022/12/18 12:04:27;;;;;;;363.40;55.80;;;;;;;-4.10;100.00;101445.42;99429;1350;22834;-31
2022/12/18 12:07:04;;;;;;;454.10;110.80;;;;;;;-4.18;99.98;101448.16;99337;1369;24342;-35
2022/12/18 12:09:44;;;;;;;581.20;127.70;;;;;;;-4.21;100.00;101455.79;99369;1344;26520;-30
2022/12/18 12:12:45;;;;;;;210.50;47.40;;;;;;;-4.11;100.00;101462.10;99497;1351;23032;-30
2022/12/18 12:15:19;;;;;;;90.60;26.40;;;;;;;-4.08;100.00;101472.30;99544;1349;23072;-34
2022/12/18 12:17:50;;;;;;;49.50;17.80;;;;;;;-4.17;100.00;101476.63;99637;1361;25493;-34
2022/12/18 12:20:20;;;;;;;58.40;17.20;;;;;;;-4.15;100.00;101475.16;99559;1350;23057;-30
2022/12/18 12:23:10;;;;;;;59.20;15.70;;;;;;;-4.04;100.00;101471.30;99459;1366;22840;-29
2022/12/18 12:25:42;;;;;;;40.70;14.80;;;;;;;-4.17;100.00;101470.16;99407;1350;22755;-35
2022/12/18 12:28:31;;;;;;;57.90;16.90;;;;;;;-4.28;100.00;101467.38;99282;1340;25672;-30
2022/12/18 12:31:20;;;;;;;81.50;23.10;;;;;;;-4.52;100.00;101465.55;99566;1369;23163;-34
2022/12/18 12:33:59;;;;;;;49.00;18.10;;;;;;;-4.45;100.00;101460.23;99365;1369;25434;-30
2022/12/18 12:36:42;;;;;;;62.70;16.00;;;;;;;-4.59;100.00;101467.16;99469;1351;23231;-33